sensor_id;sensor_type;location;lat;lon;timestamp;pressure;altitude;pressure_sealevel;temperature;humidity
14242;BME280;7205;50.864;12.766;2023-03-23T00:01:57;96812.03;;;14.26;49.08
14242;BME280;7205;50.864;12.766;2023-03-23T00:04:23;96813.88;;;14.25;48.60
14242;BME280;7205;50.864;12.766;2023-03-23T00:06:53;96805.91;;;14.25;48.40
14242;BME280;7205;50.864;12.766;2023-03-23T00:09:20;96810.41;;;14.25;48.51
14242;BME280;7205;50.864;12.766;2023-03-23T00:11:50;96813.66;;;14.27;48.44
14242;BME280;7205;50.864;12.766;2023-03-23T00:14:22;96812.63;;;14.28;48.48
14242;BME280;7205;50.864;12.766;2023-03-23T00:16:50;96813.66;;;14.27;48.66
14242;BME280;7205;50.864;12.766;2023-03-23T00:19:17;96811.00;;;14.27;48.50
14242;BME280;7205;50.864;12.766;2023-03-23T00:21:45;96812.03;;;14.26;48.73
14242;BME280;7205;50.864;12.766;2023-03-23T00:24:15;96813.88;;;14.25;48.81
14242;BME280;7205;50.864;12.766;2023-03-23T00:26:43;96809.38;;;14.26;48.45
14242;BME280;7205;50.864;12.766;2023-03-23T00:29:14;96804.25;;;14.24;48.56
14242;BME280;7205;50.864;12.766;2023-03-23T00:31:42;96803.25;;;14.25;48.48
14242;BME280;7205;50.864;12.766;2023-03-23T00:34:13;96797.94;;;14.25;48.62
14242;BME280;7205;50.864;12.766;2023-03-23T00:36:43;96805.69;;;14.27;48.69
14242;BME280;7205;50.864;12.766;2023-03-23T00:39:11;96792.63;;;14.25;48.72
14242;BME280;7205;50.864;12.766;2023-03-23T00:41:40;96790.78;;;14.26;48.83
14242;BME280;7205;50.864;12.766;2023-03-23T00:44:07;96782.81;;;14.26;48.74
14242;BME280;7205;50.864;12.766;2023-03-23T00:46:35;96791.63;;;14.26;48.58
14242;BME280;7205;50.864;12.766;2023-03-23T00:49:12;96779.34;;;14.25;48.67
14242;BME280;7205;50.864;12.766;2023-03-23T00:51:39;96785.66;;;14.24;48.69
14242;BME280;7205;50.864;12.766;2023-03-23T00:54:06;96769.75;;;14.24;48.83
14242;BME280;7205;50.864;12.766;2023-03-23T00:56:33;96774.84;;;14.26;48.70
14242;BME280;7205;50.864;12.766;2023-03-23T00:59:02;96768.50;;;14.27;48.71
14242;BME280;7205;50.864;12.766;2023-03-23T01:01:29;96762.41;;;14.26;48.44
14242;BME280;7205;50.864;12.766;2023-03-23T01:03:57;96765.06;;;14.26;48.44
14242;BME280;7205;50.864;12.766;2023-03-23T01:06:27;96763.19;;;14.27;48.22
14242;BME280;7205;50.864;12.766;2023-03-23T01:08:56;96757.88;;;14.27;48.42
14242;BME280;7205;50.864;12.766;2023-03-23T01:11:24;96756.88;;;14.28;47.98
14242;BME280;7205;50.864;12.766;2023-03-23T01:13:52;96755.03;;;14.28;48.13
14242;BME280;7205;50.864;12.766;2023-03-23T01:16:21;96753.16;;;14.29;47.86
14242;BME280;7205;50.864;12.766;2023-03-23T01:18:48;96754.00;;;14.29;47.99
14242;BME280;7205;50.864;12.766;2023-03-23T01:21:17;96753.75;;;14.31;47.80
14242;BME280;7205;50.864;12.766;2023-03-23T01:23:45;96742.09;;;14.32;48.08
14242;BME280;7205;50.864;12.766;2023-03-23T01:26:14;96756.19;;;14.32;47.67
14242;BME280;7205;50.864;12.766;2023-03-23T01:28:42;96748.00;;;14.34;47.83
14242;BME280;7205;50.864;12.766;2023-03-23T01:31:11;96748.84;;;14.34;47.64
14242;BME280;7205;50.864;12.766;2023-03-23T01:33:39;96737.97;;;14.36;47.80
14242;BME280;7205;50.864;12.766;2023-03-23T01:36:09;96741.69;;;14.35;47.68
14242;BME280;7205;50.864;12.766;2023-03-23T01:38:37;96742.47;;;14.35;47.49
14242;BME280;7205;50.864;12.766;2023-03-23T01:41:05;96736.38;;;14.35;47.37
14242;BME280;7205;50.864;12.766;2023-03-23T01:43:32;96737.16;;;14.35;47.26
14242;BME280;7205;50.864;12.766;2023-03-23T01:45:59;96741.25;;;14.38;47.00
14242;BME280;7205;50.864;12.766;2023-03-23T01:48:28;96750.81;;;14.39;46.93
14242;BME280;7205;50.864;12.766;2023-03-23T01:51:01;96744.91;;;14.37;47.15
14242;BME280;7205;50.864;12.766;2023-03-23T01:53:32;96750.59;;;14.40;47.47
14242;BME280;7205;50.864;12.766;2023-03-23T01:56:02;96747.94;;;14.40;47.29
14242;BME280;7205;50.864;12.766;2023-03-23T01:58:31;96738.34;;;14.39;46.93
14242;BME280;7205;50.864;12.766;2023-03-23T02:01:05;96745.28;;;14.40;47.25
14242;BME280;7205;50.864;12.766;2023-03-23T02:03:35;96742.63;;;14.40;46.96
14242;BME280;7205;50.864;12.766;2023-03-23T02:06:06;96735.47;;;14.41;47.14
14242;BME280;7205;50.864;12.766;2023-03-23T02:08:44;96734.44;;;14.42;47.13
14242;BME280;7205;50.864;12.766;2023-03-23T02:11:13;96729.34;;;14.40;47.49
14242;BME280;7205;50.864;12.766;2023-03-23T02:13:41;96728.56;;;14.40;47.18
14242;BME280;7205;50.864;12.766;2023-03-23T02:16:14;96725.31;;;14.38;47.43
14242;BME280;7205;50.864;12.766;2023-03-23T02:18:51;96723.66;;;14.37;47.74
14242;BME280;7205;50.864;12.766;2023-03-23T02:22:04;96720.66;;;14.33;47.82
14242;BME280;7205;50.864;12.766;2023-03-23T02:24:53;96724.56;;;14.31;47.67
14242;BME280;7205;50.864;12.766;2023-03-23T02:27:45;96721.53;;;14.27;47.57
14242;BME280;7205;50.864;12.766;2023-03-23T02:30:42;96724.41;;;14.26;48.10
14242;BME280;7205;50.864;12.766;2023-03-23T02:33:28;96721.34;;;14.22;48.12
14242;BME280;7205;50.864;12.766;2023-03-23T02:35:58;96719.97;;;14.20;48.20
14242;BME280;7205;50.864;12.766;2023-03-23T02:38:30;96722.84;;;14.18;48.42
14242;BME280;7205;50.864;12.766;2023-03-23T02:41:01;96722.25;;;14.16;48.50
14242;BME280;7205;50.864;12.766;2023-03-23T02:43:33;96711.63;;;14.16;48.68
14242;BME280;7205;50.864;12.766;2023-03-23T02:46:04;96713.44;;;14.16;48.75
14242;BME280;7205;50.864;12.766;2023-03-23T02:48:35;96707.91;;;14.17;48.77
14242;BME280;7205;50.864;12.766;2023-03-23T02:51:04;96706.09;;;14.18;48.99
14242;BME280;7205;50.864;12.766;2023-03-23T02:53:36;96706.91;;;14.18;48.99
14242;BME280;7205;50.864;12.766;2023-03-23T02:56:06;96699.13;;;14.17;49.27
14242;BME280;7205;50.864;12.766;2023-03-23T02:58:34;96700.19;;;14.16;49.28
14242;BME280;7205;50.864;12.766;2023-03-23T03:01:15;96696.91;;;14.14;49.35
14242;BME280;7205;50.864;12.766;2023-03-23T03:03:44;96701.63;;;14.12;49.58
14242;BME280;7205;50.864;12.766;2023-03-23T03:06:19;96688.38;;;14.12;49.55
14242;BME280;7205;50.864;12.766;2023-03-23T03:08:52;96692.44;;;14.14;49.76
14242;BME280;7205;50.864;12.766;2023-03-23T03:11:22;96696.31;;;14.12;50.06
14242;BME280;7205;50.864;12.766;2023-03-23T03:13:54;96701.22;;;14.15;50.05
14242;BME280;7205;50.864;12.766;2023-03-23T03:16:27;96690.97;;;14.18;50.23
14242;BME280;7205;50.864;12.766;2023-03-23T03:19:01;96698.28;;;14.23;50.14
14242;BME280;7205;50.864;12.766;2023-03-23T03:21:31;96689.88;;;14.26;49.96
14242;BME280;7205;50.864;12.766;2023-03-23T03:24:01;96698.66;;;14.26;49.92
14242;BME280;7205;50.864;12.766;2023-03-23T03:26:31;96698.66;;;14.26;49.94
14242;BME280;7205;50.864;12.766;2023-03-23T03:29:15;96695.84;;;14.21;50.23
14242;BME280;7205;50.864;12.766;2023-03-23T03:31:47;96701.78;;;14.17;50.20
14242;BME280;7205;50.864;12.766;2023-03-23T03:34:17;96691.00;;;14.12;50.21
14242;BME280;7205;50.864;12.766;2023-03-23T03:36:47;96691.91;;;14.06;50.57
14242;BME280;7205;50.864;12.766;2023-03-23T03:39:16;96684.84;;;14.00;50.61
14242;BME280;7205;50.864;12.766;2023-03-23T03:41:45;96680.38;;;13.94;50.85
14242;BME280;7205;50.864;12.766;2023-03-23T03:44:12;96684.09;;;13.93;51.34
14242;BME280;7205;50.864;12.766;2023-03-23T03:46:39;96678.19;;;13.91;51.40
14242;BME280;7205;50.864;12.766;2023-03-23T03:49:08;96673.09;;;13.89;51.30
14242;BME280;7205;50.864;12.766;2023-03-23T03:51:39;96674.94;;;13.88;51.47
14242;BME280;7205;50.864;12.766;2023-03-23T03:54:11;96669.84;;;13.87;51.56
14242;BME280;7205;50.864;12.766;2023-03-23T03:56:38;96661.50;;;13.83;51.72
14242;BME280;7205;50.864;12.766;2023-03-23T03:59:38;96667.25;;;13.80;51.71
14242;BME280;7205;50.864;12.766;2023-03-23T04:02:08;96663.78;;;13.80;51.92
14242;BME280;7205;50.864;12.766;2023-03-23T04:04:35;96667.47;;;13.79;51.89
14242;BME280;7205;50.864;12.766;2023-03-23T04:07:03;96665.28;;;13.76;51.95
14242;BME280;7205;50.864;12.766;2023-03-23T04:09:30;96671.38;;;13.76;52.20
14242;BME280;7205;50.864;12.766;2023-03-23T04:11:58;96654.88;;;13.74;52.37
14242;BME280;7205;50.864;12.766;2023-03-23T04:14:57;96661.19;;;13.73;52.13
14242;BME280;7205;50.864;12.766;2023-03-23T04:17:32;96651.84;;;13.71;52.21
14242;BME280;7205;50.864;12.766;2023-03-23T04:19:59;96664.06;;;13.72;52.10
14242;BME280;7205;50.864;12.766;2023-03-23T04:22:29;96656.72;;;13.74;52.17
14242;BME280;7205;50.864;12.766;2023-03-23T04:24:59;96656.25;;;13.77;52.24
14242;BME280;7205;50.864;12.766;2023-03-23T04:27:33;96660.13;;;13.81;52.00
14242;BME280;7205;50.864;12.766;2023-03-23T04:30:02;96657.47;;;13.81;51.82
14242;BME280;7205;50.864;12.766;2023-03-23T04:32:36;96656.41;;;13.82;52.00
14242;BME280;7205;50.864;12.766;2023-03-23T04:35:06;96665.78;;;13.84;51.78
14242;BME280;7205;50.864;12.766;2023-03-23T04:37:41;96662.09;;;13.85;51.67
14242;BME280;7205;50.864;12.766;2023-03-23T04:40:11;96664.75;;;13.85;51.90
14242;BME280;7205;50.864;12.766;2023-03-23T04:42:44;96663.94;;;13.85;51.54
14242;BME280;7205;50.864;12.766;2023-03-23T04:45:38;96667.19;;;13.87;51.79
14242;BME280;7205;50.864;12.766;2023-03-23T04:48:08;96661.44;;;13.90;51.50
14242;BME280;7205;50.864;12.766;2023-03-23T04:50:43;96671.63;;;13.93;51.62
14242;BME280;7205;50.864;12.766;2023-03-23T04:53:22;96662.41;;;13.96;51.33
14242;BME280;7205;50.864;12.766;2023-03-23T04:55:49;96674.22;;;14.00;51.53
14242;BME280;7205;50.864;12.766;2023-03-23T04:58:18;96671.13;;;14.03;51.31
14242;BME280;7205;50.864;12.766;2023-03-23T05:01:06;96670.06;;;14.04;51.42
14242;BME280;7205;50.864;12.766;2023-03-23T05:03:40;96665.97;;;14.08;51.31
14242;BME280;7205;50.864;12.766;2023-03-23T05:06:07;96659.16;;;14.12;50.86
14242;BME280;7205;50.864;12.766;2023-03-23T05:08:36;96665.22;;;14.19;50.87
14242;BME280;7205;50.864;12.766;2023-03-23T05:11:06;96663.53;;;14.24;50.94
14242;BME280;7205;50.864;12.766;2023-03-23T05:13:37;96663.94;;;14.28;50.93
14242;BME280;7205;50.864;12.766;2023-03-23T05:16:06;96673.06;;;14.32;50.62
14242;BME280;7205;50.864;12.766;2023-03-23T05:18:35;96678.72;;;14.35;50.41
14242;BME280;7205;50.864;12.766;2023-03-23T05:21:05;96684.41;;;14.39;50.48
14242;BME280;7205;50.864;12.766;2023-03-23T05:23:37;96689.28;;;14.42;50.61
14242;BME280;7205;50.864;12.766;2023-03-23T05:26:13;96686.44;;;14.43;50.48
14242;BME280;7205;50.864;12.766;2023-03-23T05:28:40;96687.00;;;14.45;50.52
14242;BME280;7205;50.864;12.766;2023-03-23T05:31:16;96685.16;;;14.46;50.36
14242;BME280;7205;50.864;12.766;2023-03-23T05:33:44;96676.38;;;14.45;50.12
14242;BME280;7205;50.864;12.766;2023-03-23T05:36:19;96678.22;;;14.45;50.24
14242;BME280;7205;50.864;12.766;2023-03-23T05:39:05;96679.84;;;14.46;50.17
14242;BME280;7205;50.864;12.766;2023-03-23T05:42:01;96681.69;;;14.45;50.35
14242;BME280;7205;50.864;12.766;2023-03-23T05:44:41;96682.28;;;14.47;50.23
14242;BME280;7205;50.864;12.766;2023-03-23T05:47:09;96682.88;;;14.49;50.24
14242;BME280;7205;50.864;12.766;2023-03-23T05:49:39;96685.31;;;14.51;50.42
14242;BME280;7205;50.864;12.766;2023-03-23T05:52:09;96684.41;;;14.57;50.33
14242;BME280;7205;50.864;12.766;2023-03-23T05:54:37;96682.94;;;14.61;50.64
14242;BME280;7205;50.864;12.766;2023-03-23T05:57:05;96678.81;;;14.65;50.21
14242;BME280;7205;50.864;12.766;2023-03-23T05:59:58;96680.19;;;14.67;50.42
14242;BME280;7205;50.864;12.766;2023-03-23T06:02:28;96681.38;;;14.71;50.11
14242;BME280;7205;50.864;12.766;2023-03-23T06:04:56;96683.34;;;14.76;50.07
14242;BME280;7205;50.864;12.766;2023-03-23T06:07:29;96691.69;;;14.79;49.88
14242;BME280;7205;50.864;12.766;2023-03-23T06:10:05;96701.25;;;14.80;49.68
14242;BME280;7205;50.864;12.766;2023-03-23T06:12:39;96703.91;;;14.80;49.69
14242;BME280;7205;50.864;12.766;2023-03-23T06:15:26;96707.03;;;14.77;49.45
14242;BME280;7205;50.864;12.766;2023-03-23T06:18:16;96711.97;;;14.74;49.64
14242;BME280;7205;50.864;12.766;2023-03-23T06:20:56;96709.56;;;14.72;49.56
14242;BME280;7205;50.864;12.766;2023-03-23T06:23:42;96710.97;;;14.75;49.65
14242;BME280;7205;50.864;12.766;2023-03-23T06:26:13;96715.16;;;14.82;49.85
14242;BME280;7205;50.864;12.766;2023-03-23T06:28:43;96712.16;;;14.90;49.65
14242;BME280;7205;50.864;12.766;2023-03-23T06:31:10;96712.91;;;14.97;49.67
14242;BME280;7205;50.864;12.766;2023-03-23T06:33:38;96711.56;;;15.06;49.46
14242;BME280;7205;50.864;12.766;2023-03-23T06:36:24;96714.34;;;15.12;49.49
14242;BME280;7205;50.864;12.766;2023-03-23T06:39:24;96710.91;;;15.23;49.53
14242;BME280;7205;50.864;12.766;2023-03-23T06:42:23;96716.84;;;15.36;48.93
14242;BME280;7205;50.864;12.766;2023-03-23T06:45:09;96728.00;;;15.45;48.85
14242;BME280;7205;50.864;12.766;2023-03-23T06:47:37;96735.66;;;15.53;48.82
14242;BME280;7205;50.864;12.766;2023-03-23T06:50:05;96732.09;;;15.59;48.28
14242;BME280;7205;50.864;12.766;2023-03-23T06:52:34;96736.50;;;15.65;48.46
14242;BME280;7205;50.864;12.766;2023-03-23T06:55:00;96749.09;;;15.69;48.33
14242;BME280;7205;50.864;12.766;2023-03-23T06:57:29;96740.88;;;15.71;48.31
14242;BME280;7205;50.864;12.766;2023-03-23T06:59:59;96742.28;;;15.73;48.16
14242;BME280;7205;50.864;12.766;2023-03-23T07:02:25;96746.22;;;15.71;47.92
14242;BME280;7205;50.864;12.766;2023-03-23T07:04:52;96735.78;;;15.69;47.79
14242;BME280;7205;50.864;12.766;2023-03-23T07:07:22;96740.34;;;15.69;47.92
14242;BME280;7205;50.864;12.766;2023-03-23T07:10:27;96743.78;;;15.69;48.22
14242;BME280;7205;50.864;12.766;2023-03-23T07:12:56;96741.47;;;15.73;47.71
14242;BME280;7205;50.864;12.766;2023-03-23T07:15:26;96753.88;;;15.79;48.03
14242;BME280;7205;50.864;12.766;2023-03-23T07:17:55;96756.31;;;15.80;47.54
14242;BME280;7205;50.864;12.766;2023-03-23T07:20:29;96761.41;;;15.82;48.13
14242;BME280;7205;50.864;12.766;2023-03-23T07:22:56;96753.31;;;15.88;48.19
14242;BME280;7205;50.864;12.766;2023-03-23T07:25:39;96754.03;;;15.95;48.31
14242;BME280;7205;50.864;12.766;2023-03-23T07:28:13;96757.16;;;16.04;48.43
14242;BME280;7205;50.864;12.766;2023-03-23T07:30:40;96748.22;;;16.10;48.64
14242;BME280;7205;50.864;12.766;2023-03-23T07:33:09;96747.19;;;16.11;48.75
14242;BME280;7205;50.864;12.766;2023-03-23T07:35:38;96751.47;;;16.12;48.54
14242;BME280;7205;50.864;12.766;2023-03-23T07:38:16;96753.22;;;16.06;48.69
14242;BME280;7205;50.864;12.766;2023-03-23T07:40:47;96761.78;;;16.08;48.96
14242;BME280;7205;50.864;12.766;2023-03-23T07:43:18;96770.47;;;16.15;49.17
14242;BME280;7205;50.864;12.766;2023-03-23T07:46:05;96768.16;;;16.19;49.09
14242;BME280;7205;50.864;12.766;2023-03-23T07:48:42;96766.63;;;16.23;49.12
14242;BME280;7205;50.864;12.766;2023-03-23T07:51:10;96773.97;;;16.27;49.51
14242;BME280;7205;50.864;12.766;2023-03-23T07:53:37;96779.06;;;16.29;49.41
14242;BME280;7205;50.864;12.766;2023-03-23T07:56:30;96782.16;;;16.26;49.67
14242;BME280;7205;50.864;12.766;2023-03-23T07:59:12;96786.34;;;16.22;49.77
14242;BME280;7205;50.864;12.766;2023-03-23T08:01:41;96792.25;;;16.12;49.86
14242;BME280;7205;50.864;12.766;2023-03-23T08:04:34;96782.63;;;16.00;50.93
14242;BME280;7205;50.864;12.766;2023-03-23T08:07:16;96782.38;;;15.90;51.41
14242;BME280;7205;50.864;12.766;2023-03-23T08:10:03;96784.78;;;15.80;51.89
14242;BME280;7205;50.864;12.766;2023-03-23T08:13:07;96782.69;;;15.70;52.29
14242;BME280;7205;50.864;12.766;2023-03-23T08:15:54;96792.38;;;15.65;52.79
14242;BME280;7205;50.864;12.766;2023-03-23T08:18:42;96788.13;;;15.64;53.24
14242;BME280;7205;50.864;12.766;2023-03-23T08:21:35;96780.91;;;15.64;53.68
14242;BME280;7205;50.864;12.766;2023-03-23T08:24:17;96775.38;;;15.66;54.01
14242;BME280;7205;50.864;12.766;2023-03-23T08:26:59;96789.50;;;15.66;53.83
14242;BME280;7205;50.864;12.766;2023-03-23T08:30:05;96790.31;;;15.67;54.30
14242;BME280;7205;50.864;12.766;2023-03-23T08:32:46;96780.63;;;15.72;54.54
14242;BME280;7205;50.864;12.766;2023-03-23T08:35:32;96784.88;;;15.73;54.83
14242;BME280;7205;50.864;12.766;2023-03-23T08:38:37;96789.97;;;15.75;54.73
14242;BME280;7205;50.864;12.766;2023-03-23T08:41:23;96781.06;;;15.69;54.61
14242;BME280;7205;50.864;12.766;2023-03-23T08:44:03;96779.31;;;15.63;54.58
14242;BME280;7205;50.864;12.766;2023-03-23T08:46:42;96785.09;;;15.60;54.69
14242;BME280;7205;50.864;12.766;2023-03-23T08:49:37;96784.50;;;15.58;54.71
14242;BME280;7205;50.864;12.766;2023-03-23T08:52:42;96779.19;;;15.58;55.27
14242;BME280;7205;50.864;12.766;2023-03-23T08:55:23;96780.78;;;15.59;55.35
14242;BME280;7205;50.864;12.766;2023-03-23T08:58:16;96784.63;;;15.63;55.65
14242;BME280;7205;50.864;12.766;2023-03-23T09:01:08;96794.34;;;15.69;55.59
14242;BME280;7205;50.864;12.766;2023-03-23T09:04:05;96785.34;;;15.70;55.41
14242;BME280;7205;50.864;12.766;2023-03-23T09:06:51;96771.56;;;15.73;54.97
14242;BME280;7205;50.864;12.766;2023-03-23T09:09:18;96785.47;;;15.75;55.03
14242;BME280;7205;50.864;12.766;2023-03-23T09:11:47;96791.81;;;15.74;54.78
14242;BME280;7205;50.864;12.766;2023-03-23T09:14:14;96798.78;;;15.75;54.52
14242;BME280;7205;50.864;12.766;2023-03-23T09:16:44;96803.88;;;15.77;54.71
14242;BME280;7205;50.864;12.766;2023-03-23T09:19:12;96803.19;;;15.81;54.71
14242;BME280;7205;50.864;12.766;2023-03-23T09:21:39;96792.66;;;15.86;54.78
14242;BME280;7205;50.864;12.766;2023-03-23T09:24:07;96790.47;;;15.95;54.91
14242;BME280;7205;50.864;12.766;2023-03-23T09:26:34;96784.94;;;16.08;54.36
14242;BME280;7205;50.864;12.766;2023-03-23T09:29:01;96786.00;;;16.18;53.90
14242;BME280;7205;50.864;12.766;2023-03-23T09:31:28;96794.81;;;16.30;54.27
14242;BME280;7205;50.864;12.766;2023-03-23T09:33:57;96788.06;;;16.40;53.99
14242;BME280;7205;50.864;12.766;2023-03-23T09:36:26;96792.03;;;16.49;53.90
14242;BME280;7205;50.864;12.766;2023-03-23T09:38:57;96788.31;;;16.61;53.67
14242;BME280;7205;50.864;12.766;2023-03-23T09:41:44;96786.81;;;16.65;53.37
14242;BME280;7205;50.864;12.766;2023-03-23T09:44:26;96787.25;;;16.74;53.20
14242;BME280;7205;50.864;12.766;2023-03-23T09:46:59;96799.63;;;16.80;52.96
14242;BME280;7205;50.864;12.766;2023-03-23T09:49:32;96805.56;;;16.82;52.55
14242;BME280;7205;50.864;12.766;2023-03-23T09:52:01;96805.78;;;16.80;52.67
14242;BME280;7205;50.864;12.766;2023-03-23T09:54:33;96802.31;;;16.80;52.59
14242;BME280;7205;50.864;12.766;2023-03-23T09:57:04;96809.28;;;16.81;52.37
14242;BME280;7205;50.864;12.766;2023-03-23T09:59:36;96815.41;;;16.81;52.70
14242;BME280;7205;50.864;12.766;2023-03-23T10:02:16;96810.41;;;16.85;52.76
14242;BME280;7205;50.864;12.766;2023-03-23T10:04:45;96817.97;;;16.88;52.70
14242;BME280;7205;50.864;12.766;2023-03-23T10:07:14;96814.72;;;16.86;52.72
14242;BME280;7205;50.864;12.766;2023-03-23T10:09:43;96828.97;;;16.80;52.53
14242;BME280;7205;50.864;12.766;2023-03-23T10:12:21;96819.50;;;16.72;52.75
14242;BME280;7205;50.864;12.766;2023-03-23T10:15:09;96822.75;;;16.74;53.01
14242;BME280;7205;50.864;12.766;2023-03-23T10:17:46;96817.41;;;16.74;52.89
14242;BME280;7205;50.864;12.766;2023-03-23T10:20:24;96816.34;;;16.75;52.84
14242;BME280;7205;50.864;12.766;2023-03-23T10:23:01;96811.72;;;16.82;53.27
14242;BME280;7205;50.864;12.766;2023-03-23T10:25:34;96804.75;;;16.93;53.06
14242;BME280;7205;50.864;12.766;2023-03-23T10:28:06;96810.28;;;17.03;52.85
14242;BME280;7205;50.864;12.766;2023-03-23T10:30:40;96810.94;;;17.10;52.46
14242;BME280;7205;50.864;12.766;2023-03-23T10:33:13;96804.69;;;17.16;52.46
14242;BME280;7205;50.864;12.766;2023-03-23T10:35:44;96798.19;;;17.12;52.06
14242;BME280;7205;50.864;12.766;2023-03-23T10:38:26;96816.84;;;17.12;52.28
14242;BME280;7205;50.864;12.766;2023-03-23T10:40:57;96820.34;;;17.12;52.37
14242;BME280;7205;50.864;12.766;2023-03-23T10:43:28;96820.09;;;17.14;52.27
14242;BME280;7205;50.864;12.766;2023-03-23T10:45:58;96811.28;;;17.13;52.51
14242;BME280;7205;50.864;12.766;2023-03-23T10:48:30;96822.19;;;17.12;52.43
14242;BME280;7205;50.864;12.766;2023-03-23T10:51:00;96821.16;;;17.13;52.63
14242;BME280;7205;50.864;12.766;2023-03-23T10:53:32;96821.38;;;17.11;53.10
14242;BME280;7205;50.864;12.766;2023-03-23T10:56:00;96813.25;;;17.06;53.22
14242;BME280;7205;50.864;12.766;2023-03-23T10:58:30;96823.72;;;17.08;53.73
14242;BME280;7205;50.864;12.766;2023-03-23T11:01:00;96819.78;;;16.99;53.73
14242;BME280;7205;50.864;12.766;2023-03-23T11:03:40;96831.06;;;16.89;53.92
14242;BME280;7205;50.864;12.766;2023-03-23T11:06:11;96826.19;;;16.75;54.09
14242;BME280;7205;50.864;12.766;2023-03-23T11:08:50;96829.22;;;16.55;54.47
14242;BME280;7205;50.864;12.766;2023-03-23T11:11:21;96830.97;;;16.50;54.87
14242;BME280;7205;50.864;12.766;2023-03-23T11:13:58;96811.38;;;16.44;55.41
14242;BME280;7205;50.864;12.766;2023-03-23T11:16:28;96822.28;;;16.43;55.25
14242;BME280;7205;50.864;12.766;2023-03-23T11:19:11;96823.53;;;16.40;55.36
14242;BME280;7205;50.864;12.766;2023-03-23T11:21:39;96824.81;;;16.38;55.27
14242;BME280;7205;50.864;12.766;2023-03-23T11:24:08;96818.31;;;16.33;55.34
14242;BME280;7205;50.864;12.766;2023-03-23T11:26:43;96819.94;;;16.34;56.00
14242;BME280;7205;50.864;12.766;2023-03-23T11:29:18;96834.66;;;16.37;56.05
14242;BME280;7205;50.864;12.766;2023-03-23T11:31:50;96819.69;;;16.36;56.16
14242;BME280;7205;50.864;12.766;2023-03-23T11:34:20;96815.88;;;16.32;56.23
14242;BME280;7205;50.864;12.766;2023-03-23T11:36:49;96832.69;;;16.33;56.94
14242;BME280;7205;50.864;12.766;2023-03-23T11:39:20;96830.03;;;16.33;57.18
14242;BME280;7205;50.864;12.766;2023-03-23T11:41:47;96839.75;;;16.39;57.41
14242;BME280;7205;50.864;12.766;2023-03-23T11:44:16;96828.78;;;16.47;57.61
14242;BME280;7205;50.864;12.766;2023-03-23T11:46:55;96822.97;;;16.50;57.23
14242;BME280;7205;50.864;12.766;2023-03-23T11:49:44;96824.25;;;16.59;57.21
14242;BME280;7205;50.864;12.766;2023-03-23T11:52:18;96824.59;;;16.74;57.41
14242;BME280;7205;50.864;12.766;2023-03-23T11:54:52;96814.38;;;16.82;56.69
14242;BME280;7205;50.864;12.766;2023-03-23T11:57:22;96819.00;;;16.87;56.49
14242;BME280;7205;50.864;12.766;2023-03-23T11:59:51;96823.50;;;16.86;56.02
14242;BME280;7205;50.864;12.766;2023-03-23T12:02:38;96823.50;;;16.86;56.05
14242;BME280;7205;50.864;12.766;2023-03-23T12:05:26;96825.97;;;16.88;55.73
14242;BME280;7205;50.864;12.766;2023-03-23T12:08:02;96819.81;;;16.87;55.27
14242;BME280;7205;50.864;12.766;2023-03-23T12:10:40;96814.72;;;16.86;55.07
14242;BME280;7205;50.864;12.766;2023-03-23T12:13:26;96809.63;;;16.84;54.96
14242;BME280;7205;50.864;12.766;2023-03-23T12:16:02;96806.34;;;16.94;55.07
14242;BME280;7205;50.864;12.766;2023-03-23T12:18:45;96813.25;;;17.06;55.08
14242;BME280;7205;50.864;12.766;2023-03-23T12:21:18;96811.53;;;17.12;54.10
14242;BME280;7205;50.864;12.766;2023-03-23T12:23:53;96815.13;;;17.17;54.23
14242;BME280;7205;50.864;12.766;2023-03-23T12:26:23;96814.53;;;17.15;53.30
14242;BME280;7205;50.864;12.766;2023-03-23T12:29:19;96824.84;;;17.12;53.28
14242;BME280;7205;50.864;12.766;2023-03-23T12:32:29;96823.94;;;17.06;53.65
14242;BME280;7205;50.864;12.766;2023-03-23T12:35:10;96829.84;;;17.08;53.31
14242;BME280;7205;50.864;12.766;2023-03-23T12:37:48;96831.00;;;17.12;53.48
14242;BME280;7205;50.864;12.766;2023-03-23T12:40:39;96836.22;;;17.19;53.25
14242;BME280;7205;50.864;12.766;2023-03-23T12:43:14;96838.03;;;17.30;53.07
14242;BME280;7205;50.864;12.766;2023-03-23T12:45:52;96826.75;;;17.39;52.91
14242;BME280;7205;50.864;12.766;2023-03-23T12:48:24;96829.78;;;17.43;52.44
14242;BME280;7205;50.864;12.766;2023-03-23T12:51:09;96824.53;;;17.36;51.45
14242;BME280;7205;50.864;12.766;2023-03-23T12:53:48;96822.75;;;17.25;51.19
14242;BME280;7205;50.864;12.766;2023-03-23T12:56:22;96834.81;;;17.16;51.25
14242;BME280;7205;50.864;12.766;2023-03-23T12:58:56;96824.84;;;17.12;50.88
14242;BME280;7205;50.864;12.766;2023-03-23T13:01:25;96821.75;;;17.03;50.79
14242;BME280;7205;50.864;12.766;2023-03-23T13:03:57;96821.66;;;16.98;51.00
14242;BME280;7205;50.864;12.766;2023-03-23T13:06:28;96820.50;;;16.94;50.90
14242;BME280;7205;50.864;12.766;2023-03-23T13:09:01;96821.19;;;16.90;50.67
14242;BME280;7205;50.864;12.766;2023-03-23T13:11:32;96825.03;;;16.82;50.60
14242;BME280;7205;50.864;12.766;2023-03-23T13:14:14;96824.94;;;16.77;50.64
14242;BME280;7205;50.864;12.766;2023-03-23T13:16:48;96812.06;;;16.74;50.70
14242;BME280;7205;50.864;12.766;2023-03-23T13:19:25;96818.53;;;16.78;50.85
14242;BME280;7205;50.864;12.766;2023-03-23T13:21:58;96808.34;;;16.87;51.28
14242;BME280;7205;50.864;12.766;2023-03-23T13:24:30;96815.63;;;17.03;51.37
14242;BME280;7205;50.864;12.766;2023-03-23T13:27:00;96810.00;;;17.16;51.35
14242;BME280;7205;50.864;12.766;2023-03-23T13:29:30;96806.47;;;17.27;50.85
14242;BME280;7205;50.864;12.766;2023-03-23T13:32:06;96793.56;;;17.35;50.84
14242;BME280;7205;50.864;12.766;2023-03-23T13:34:35;96788.34;;;17.40;50.66
14242;BME280;7205;50.864;12.766;2023-03-23T13:37:04;96792.06;;;17.39;50.18
14242;BME280;7205;50.864;12.766;2023-03-23T13:39:35;96786.38;;;17.36;50.91